createdAt,value
2022-12-19T00:00:32.588Z,97.39
2022-12-19T00:03:06.208Z,97.55
2022-12-19T00:05:38.179Z,97.30
2022-12-19T00:08:17.228Z,97.40
2022-12-19T00:10:56.627Z,97.07
2022-12-19T00:13:25.231Z,97.08
2022-12-19T00:15:53.031Z,96.97
2022-12-19T00:18:22.325Z,97.05
2022-12-19T00:20:57.047Z,97.00
2022-12-19T00:23:26.711Z,97.07
2022-12-19T00:25:55.333Z,97.10
2022-12-19T00:28:22.738Z,96.94
2022-12-19T00:30:51.734Z,97.23
2022-12-19T00:33:22.067Z,97.24
2022-12-19T00:35:49.940Z,97.45
2022-12-19T00:38:19.228Z,97.50
2022-12-19T00:40:46.608Z,97.51
2022-12-19T00:43:14.057Z,97.40
2022-12-19T00:45:41.537Z,97.41
2022-12-19T00:48:08.941Z,97.27
2022-12-19T00:50:37.972Z,96.96
2022-12-19T00:53:06.343Z,96.87
2022-12-19T00:55:33.881Z,97.07
2022-12-19T00:58:01.302Z,97.10
2022-12-19T01:00:28.791Z,97.10
2022-12-19T01:02:56.361Z,97.04
2022-12-19T01:05:23.512Z,97.01
2022-12-19T01:07:51.853Z,97.21
2022-12-19T01:10:19.142Z,97.12
2022-12-19T01:12:46.586Z,97.22
2022-12-19T01:15:17.406Z,97.00
2022-12-19T01:17:45.771Z,97.04
2022-12-19T01:20:29.540Z,96.85
2022-12-19T01:22:58.877Z,96.94
2022-12-19T01:25:27.529Z,96.90
2022-12-19T01:27:58.068Z,97.10
2022-12-19T01:30:26.155Z,97.15
2022-12-19T01:32:57.434Z,97.07
2022-12-19T01:35:25.492Z,97.16
2022-12-19T01:38:08.472Z,96.88
2022-12-19T01:40:37.288Z,96.99
2022-12-19T01:43:07.038Z,96.93
2022-12-19T01:45:39.483Z,97.00
2022-12-19T01:48:32.348Z,96.96
2022-12-19T01:51:16.831Z,97.30
2022-12-19T01:53:49.747Z,96.98
2022-12-19T01:56:24.920Z,96.87
2022-12-19T01:59:05.932Z,97.05
2022-12-19T02:01:36.372Z,96.83
2022-12-19T02:04:18.254Z,96.75
2022-12-19T02:06:45.888Z,96.96
2022-12-19T02:09:13.167Z,96.95
2022-12-19T02:11:40.666Z,96.90
2022-12-19T02:14:07.963Z,96.83
2022-12-19T02:16:44.895Z,96.79
2022-12-19T02:19:38.933Z,96.72
2022-12-19T02:22:38.948Z,96.71
2022-12-19T02:25:46.239Z,96.74
2022-12-19T02:28:42.270Z,96.64
2022-12-19T02:31:42.118Z,96.51
2022-12-19T02:34:41.394Z,96.51
2022-12-19T02:37:38.995Z,96.47
2022-12-19T02:40:17.071Z,96.92
2022-12-19T02:42:48.604Z,96.97
2022-12-19T02:45:22.687Z,96.93
2022-12-19T02:48:03.340Z,96.65
2022-12-19T02:50:42.133Z,96.72
2022-12-19T02:53:14.544Z,96.41
2022-12-19T02:55:52.829Z,96.10
2022-12-19T02:58:35.540Z,96.00
2022-12-19T03:01:35.086Z,95.72
2022-12-19T03:04:21.617Z,95.80
2022-12-19T03:07:23.171Z,95.66
2022-12-19T03:09:59.750Z,95.75
2022-12-19T03:12:36.121Z,95.65
2022-12-19T03:15:04.291Z,95.71
2022-12-19T03:17:36.942Z,95.68
2022-12-19T03:20:30.462Z,95.76
2022-12-19T03:22:57.955Z,95.83
2022-12-19T03:25:26.472Z,96.00
2022-12-19T03:27:55.627Z,95.74
2022-12-19T03:30:24.003Z,95.66
2022-12-19T03:32:52.978Z,95.78
2022-12-19T03:35:26.255Z,95.55
2022-12-19T03:38:02.245Z,95.57
2022-12-19T03:40:32.315Z,95.63
2022-12-19T03:43:09.440Z,95.39
2022-12-19T03:45:48.531Z,95.55
2022-12-19T03:48:47.814Z,95.39
2022-12-19T03:51:38.034Z,95.19
2022-12-19T03:54:37.369Z,95.14
2022-12-19T03:57:14.880Z,95.24
2022-12-19T04:00:02.365Z,94.85
2022-12-19T04:02:36.230Z,95.09
2022-12-19T04:05:10.330Z,94.79
2022-12-19T04:07:39.372Z,95.13
2022-12-19T04:10:09.913Z,95.06
2022-12-19T04:12:42.678Z,95.11
2022-12-19T04:15:16.680Z,95.15
2022-12-19T04:17:59.474Z,94.96
2022-12-19T04:20:28.635Z,95.37
2022-12-19T04:23:03.400Z,95.20
2022-12-19T04:25:38.623Z,95.02
2022-12-19T04:28:23.055Z,95.04
2022-12-19T04:30:58.600Z,95.37
2022-12-19T04:33:26.100Z,95.16
2022-12-19T04:35:53.540Z,95.32
2022-12-19T04:38:21.004Z,95.35
2022-12-19T04:40:48.422Z,95.28
2022-12-19T04:43:15.880Z,95.36
2022-12-19T04:45:43.501Z,95.48
2022-12-19T04:48:13.072Z,95.27
2022-12-19T04:50:40.733Z,95.40
2022-12-19T04:53:08.125Z,95.40
2022-12-19T04:55:36.619Z,95.30
2022-12-19T04:58:07.708Z,95.32
2022-12-19T05:00:35.114Z,95.67
2022-12-19T05:03:04.847Z,95.82
2022-12-19T05:05:32.126Z,95.80
2022-12-19T05:08:00.519Z,96.14
2022-12-19T05:10:28.996Z,95.98
2022-12-19T05:12:56.441Z,95.99
2022-12-19T05:15:23.933Z,95.53
2022-12-19T05:17:51.420Z,95.47
2022-12-19T05:20:18.876Z,95.23
2022-12-19T05:22:46.290Z,95.04
2022-12-19T05:25:13.758Z,94.78
2022-12-19T05:27:41.226Z,94.96
2022-12-19T05:30:11.322Z,94.79
2022-12-19T05:32:39.001Z,94.77
2022-12-19T05:35:06.973Z,94.69
2022-12-19T05:37:36.599Z,94.52
2022-12-19T05:40:04.411Z,93.94
2022-12-19T05:42:31.549Z,93.91
2022-12-19T05:44:59.009Z,93.70
2022-12-19T05:47:26.646Z,93.48
2022-12-19T05:49:54.916Z,92.90
2022-12-19T05:52:24.934Z,92.72
2022-12-19T05:54:54.469Z,92.32
2022-12-19T05:57:21.907Z,92.28
2022-12-19T05:59:49.403Z,92.35
2022-12-19T06:02:16.996Z,92.50
2022-12-19T06:04:45.372Z,92.53
2022-12-19T06:07:16.468Z,92.69
2022-12-19T06:09:46.369Z,92.68
2022-12-19T06:12:13.775Z,92.61
2022-12-19T06:14:41.336Z,92.43
2022-12-19T06:17:08.737Z,92.58
2022-12-19T06:19:36.157Z,92.90
2022-12-19T06:22:03.649Z,92.83
2022-12-19T06:24:31.135Z,92.73
2022-12-19T06:26:58.508Z,92.42
2022-12-19T06:29:26.040Z,92.74
2022-12-19T06:31:53.531Z,93.09
2022-12-19T06:34:54.925Z,93.01
2022-12-19T06:37:12.303Z,93.10
2022-12-19T06:39:40.433Z,93.31
2022-12-19T06:42:24.977Z,93.43
2022-12-19T06:44:55.548Z,93.28
2022-12-19T06:47:24.381Z,93.28
2022-12-19T06:49:53.060Z,93.47
2022-12-19T06:52:22.668Z,93.76
2022-12-19T06:54:49.804Z,93.77
2022-12-19T06:57:17.357Z,93.98
2022-12-19T06:59:46.838Z,93.68
2022-12-19T07:02:36.559Z,94.02
2022-12-19T07:05:07.377Z,93.89
2022-12-19T07:07:42.985Z,94.09
2022-12-19T07:10:11.840Z,94.65
2022-12-19T07:12:45.965Z,94.82
2022-12-19T07:15:13.555Z,95.13
2022-12-19T07:17:42.361Z,95.11
2022-12-19T07:20:10.753Z,95.16
2022-12-19T07:22:39.199Z,94.94
2022-12-19T07:25:07.157Z,94.93
2022-12-19T07:27:42.472Z,95.02
2022-12-19T07:30:10.679Z,95.15
2022-12-19T07:32:39.467Z,94.88
2022-12-19T07:35:07.892Z,94.54
2022-12-19T07:37:35.476Z,94.36
2022-12-19T07:40:05.266Z,94.38
2022-12-19T07:42:33.103Z,94.30
2022-12-19T07:45:01.893Z,94.14
2022-12-19T07:47:29.475Z,94.02
2022-12-19T07:49:57.959Z,93.89
2022-12-19T07:52:30.955Z,93.54
2022-12-19T07:54:58.202Z,93.19
2022-12-19T07:57:27.471Z,92.47
2022-12-19T07:59:56.945Z,91.96
2022-12-19T08:02:24.926Z,91.52
2022-12-19T08:04:52.614Z,91.35
2022-12-19T08:07:20.313Z,90.85
2022-12-19T08:09:47.954Z,90.41
2022-12-19T08:12:17.259Z,89.98
2022-12-19T08:14:44.962Z,89.63
2022-12-19T08:17:21.397Z,89.29
2022-12-19T08:19:48.926Z,89.10
2022-12-19T08:22:16.812Z,88.76
2022-12-19T08:24:45.739Z,88.67
2022-12-19T08:27:13.966Z,88.48
2022-12-19T08:29:42.453Z,88.09
2022-12-19T08:32:09.887Z,88.02
2022-12-19T08:34:37.307Z,87.81
2022-12-19T08:37:04.804Z,87.61
2022-12-19T08:39:32.278Z,86.96
2022-12-19T08:41:59.740Z,86.12
2022-12-19T08:44:27.378Z,84.62
2022-12-19T08:46:54.600Z,83.54
2022-12-19T08:49:22.180Z,82.30
2022-12-19T08:51:50.539Z,81.25
2022-12-19T08:54:18.028Z,80.15
2022-12-19T08:56:46.237Z,80.05
2022-12-19T08:59:20.480Z,79.53
2022-12-19T09:01:58.817Z,79.80
2022-12-19T09:06:02.336Z,79.37
2022-12-19T09:07:15.651Z,79.42
2022-12-19T09:09:44.812Z,79.94
2022-12-19T09:12:14.741Z,80.52
2022-12-19T09:14:42.246Z,80.54
2022-12-19T09:17:09.764Z,80.64
2022-12-19T09:19:37.124Z,81.28
2022-12-19T09:22:05.123Z,81.96
2022-12-19T09:24:34.698Z,82.30
2022-12-19T09:27:04.249Z,82.40
2022-12-19T09:29:35.246Z,82.61
2022-12-19T09:32:03.124Z,81.98
2022-12-19T09:34:36.880Z,81.24
2022-12-19T09:37:07.504Z,80.75
2022-12-19T09:39:37.461Z,80.00
2022-12-19T09:42:19.918Z,79.04
2022-12-19T09:45:26.407Z,77.10
2022-12-19T09:47:59.918Z,76.11
2022-12-19T09:50:55.160Z,75.61
2022-12-19T09:53:35.465Z,74.18
2022-12-19T09:56:03.489Z,73.63
2022-12-19T09:58:41.477Z,73.48
2022-12-19T10:01:20.127Z,72.97
2022-12-19T10:04:11.935Z,73.75
2022-12-19T10:07:11.790Z,74.24
2022-12-19T10:12:15.481Z,74.19
2022-12-19T10:12:47.396Z,73.30
2022-12-19T10:16:00.195Z,72.72
2022-12-19T10:18:42.664Z,72.79
2022-12-19T10:21:50.744Z,71.58
2022-12-19T10:24:36.325Z,71.91
2022-12-19T10:27:32.383Z,71.25
2022-12-19T10:30:21.141Z,72.17
2022-12-19T10:33:07.330Z,71.94
2022-12-19T10:35:45.811Z,71.82
2022-12-19T10:38:14.144Z,71.23
2022-12-19T10:40:54.128Z,71.17
2022-12-19T10:43:44.431Z,71.21
2022-12-19T10:46:49.501Z,71.14
2022-12-19T10:49:19.727Z,70.39
2022-12-19T10:52:04.346Z,70.04
2022-12-19T10:54:39.902Z,69.75
2022-12-19T10:57:33.612Z,69.60
2022-12-19T11:00:17.097Z,70.13
2022-12-19T11:02:54.709Z,70.35
2022-12-19T11:05:32.025Z,70.28
2022-12-19T11:08:14.124Z,70.96
2022-12-19T11:13:04.117Z,71.01
2022-12-19T11:20:41.824Z,71.11
2022-12-19T11:20:51.818Z,70.94
2022-12-19T11:29:41.907Z,70.53
2022-12-19T11:29:54.826Z,70.91
2022-12-19T11:30:48.857Z,71.16
2022-12-19T11:30:59.588Z,71.32
2022-12-19T11:34:24.263Z,71.77
2022-12-19T11:37:02.000Z,70.85
2022-12-19T11:40:04.642Z,70.75
2022-12-19T11:42:38.301Z,70.40
2022-12-19T11:45:18.575Z,70.26
2022-12-19T11:47:53.395Z,70.58
2022-12-19T11:50:30.455Z,69.09
2022-12-19T11:53:19.313Z,69.42
2022-12-19T11:56:16.358Z,69.55
2022-12-19T11:58:53.116Z,70.14
2022-12-19T12:01:43.019Z,72.18
2022-12-19T12:04:31.827Z,72.62
2022-12-19T12:07:04.962Z,73.49
2022-12-19T12:13:19.902Z,74.22
2022-12-19T12:23:26.010Z,73.03
2022-12-19T12:28:26.517Z,73.14
2022-12-19T12:31:14.531Z,72.94
2022-12-19T12:31:28.409Z,72.84
2022-12-19T12:31:46.434Z,72.46
2022-12-19T12:32:04.003Z,72.62
2022-12-19T12:35:40.503Z,73.31
2022-12-19T12:41:14.474Z,73.13
2022-12-19T12:43:56.809Z,73.05
2022-12-19T12:46:28.886Z,73.47
2022-12-19T12:49:12.536Z,74.49
2022-12-19T12:51:41.225Z,74.29
2022-12-19T12:54:15.029Z,74.96
2022-12-19T12:56:43.262Z,74.86
2022-12-19T12:59:25.776Z,75.02
2022-12-19T13:02:01.702Z,75.25
2022-12-19T13:04:41.396Z,75.83
2022-12-19T13:07:24.610Z,75.99
2022-12-19T13:10:13.797Z,76.76
2022-12-19T13:13:04.469Z,77.54
2022-12-19T13:15:38.312Z,77.90
2022-12-19T13:18:40.057Z,78.24
2022-12-19T13:21:09.266Z,78.48
2022-12-19T13:23:38.735Z,79.06
2022-12-19T13:26:20.701Z,79.61
2022-12-19T13:28:48.149Z,79.75
2022-12-19T13:31:21.113Z,80.06
2022-12-19T13:33:53.572Z,80.43
2022-12-19T13:39:49.182Z,80.63
2022-12-19T13:39:54.404Z,80.81
2022-12-19T13:42:53.540Z,81.18
2022-12-19T13:45:39.537Z,81.88
2022-12-19T13:48:15.637Z,82.03
2022-12-19T13:50:49.353Z,82.19
2022-12-19T13:53:18.934Z,81.85
2022-12-19T13:55:46.725Z,81.67
2022-12-19T13:58:30.865Z,82.24
2022-12-19T14:01:04.343Z,82.36
2022-12-19T14:03:52.083Z,82.74
2022-12-19T14:06:38.952Z,83.16
2022-12-19T14:11:27.651Z,83.00
2022-12-19T14:14:01.377Z,83.15
2022-12-19T14:15:41.668Z,82.50
2022-12-19T14:18:44.993Z,82.50
2022-12-19T14:22:10.002Z,83.04
2022-12-19T14:24:25.370Z,83.08
2022-12-19T14:28:19.731Z,83.20
2022-12-19T14:30:28.005Z,83.21
2022-12-19T14:33:44.435Z,83.84
2022-12-19T14:36:12.188Z,83.35
2022-12-19T14:39:20.264Z,83.33
2022-12-19T14:41:49.484Z,83.23
2022-12-19T14:53:34.306Z,83.62
2022-12-19T14:54:04.860Z,83.31
2022-12-19T14:54:13.172Z,83.52
2022-12-19T14:54:26.803Z,83.15
2022-12-19T14:59:27.214Z,83.12
2022-12-19T15:02:32.403Z,83.34
2022-12-19T15:05:12.878Z,83.43
2022-12-19T15:07:45.323Z,83.50
2022-12-19T15:11:04.817Z,83.68
2022-12-19T15:14:47.193Z,84.04
2022-12-19T15:16:26.940Z,83.94
2022-12-19T15:19:11.544Z,83.83
2022-12-19T15:21:39.980Z,83.93
2022-12-19T15:24:09.548Z,84.12
2022-12-19T15:26:50.340Z,83.91
2022-12-19T15:29:21.877Z,83.89
2022-12-19T15:31:49.913Z,83.91
2022-12-19T15:34:35.499Z,83.66
2022-12-19T15:37:05.587Z,83.83
2022-12-19T15:39:35.088Z,83.66
2022-12-19T15:42:03.337Z,83.68
2022-12-19T15:44:38.583Z,83.54
2022-12-19T15:47:18.780Z,83.35
2022-12-19T15:49:47.049Z,83.21
2022-12-19T15:52:17.647Z,83.01
2022-12-19T15:54:50.098Z,82.80
2022-12-19T15:57:38.809Z,83.08
2022-12-19T16:00:18.875Z,83.37
2022-12-19T16:05:36.317Z,83.76
2022-12-19T16:08:12.403Z,83.57
2022-12-19T16:10:40.957Z,83.54
2022-12-19T16:13:26.353Z,83.57
2022-12-19T16:15:55.843Z,83.41
2022-12-19T16:18:23.065Z,83.36
2022-12-19T16:20:50.282Z,83.42
2022-12-19T16:23:18.038Z,83.79
2022-12-19T16:25:52.418Z,83.72
2022-12-19T16:28:38.737Z,83.24
2022-12-19T16:31:15.924Z,83.55
2022-12-19T16:33:43.297Z,83.67
2022-12-19T16:36:10.727Z,83.66
2022-12-19T16:38:38.269Z,83.06
2022-12-19T16:41:06.719Z,82.74
2022-12-19T16:43:44.471Z,83.04
2022-12-19T16:46:17.786Z,83.03
2022-12-19T16:48:45.045Z,82.73
2022-12-19T16:51:19.430Z,82.75
2022-12-19T16:53:47.536Z,82.29
2022-12-19T16:56:33.144Z,82.10
2022-12-19T16:59:04.757Z,82.31
2022-12-19T17:01:32.329Z,82.12
2022-12-19T17:03:59.520Z,82.29
2022-12-19T17:06:27.208Z,82.58
2022-12-19T17:09:00.694Z,82.30
2022-12-19T17:11:29.336Z,82.43
2022-12-19T17:14:04.971Z,82.39
2022-12-19T17:16:32.408Z,82.60
2022-12-19T17:19:01.475Z,82.74
2022-12-19T17:21:28.945Z,83.11
2022-12-19T17:23:56.176Z,82.98
2022-12-19T17:26:23.565Z,82.85
2022-12-19T17:28:50.694Z,82.68
2022-12-19T17:31:24.887Z,82.66
2022-12-19T17:33:53.334Z,83.02
2022-12-19T17:36:25.488Z,83.10
2022-12-19T17:38:55.227Z,83.18
2022-12-19T17:41:22.697Z,83.26
2022-12-19T17:43:52.283Z,83.01
2022-12-19T17:46:23.934Z,82.94
2022-12-19T17:48:53.250Z,82.66
2022-12-19T17:51:22.003Z,82.53
2022-12-19T17:53:50.186Z,82.22
2022-12-19T17:56:21.106Z,82.21
2022-12-19T17:58:49.919Z,82.25
2022-12-19T18:01:25.623Z,82.25
2022-12-19T18:03:56.442Z,81.66
2022-12-19T18:06:25.999Z,81.27
2022-12-19T18:08:53.334Z,81.15
2022-12-19T18:11:24.190Z,81.27
2022-12-19T18:13:52.797Z,81.18
2022-12-19T18:16:26.494Z,81.25
2022-12-19T18:18:54.493Z,81.20
2022-12-19T18:21:25.299Z,81.13
2022-12-19T18:23:53.056Z,81.13
2022-12-19T18:26:20.655Z,81.32
2022-12-19T18:28:50.960Z,81.06
2022-12-19T18:31:26.587Z,81.11
2022-12-19T18:34:20.826Z,80.32
2022-12-19T18:36:48.522Z,80.66
2022-12-19T18:39:26.411Z,80.44
2022-12-19T18:42:00.262Z,80.45
2022-12-19T18:44:27.396Z,80.10
2022-12-19T18:46:55.977Z,79.78
2022-12-19T18:49:24.339Z,80.03
2022-12-19T18:51:52.033Z,79.57
2022-12-19T18:54:22.522Z,79.81
2022-12-19T18:56:50.468Z,80.12
2022-12-19T18:59:19.035Z,80.26
2022-12-19T19:01:47.696Z,80.66
2022-12-19T19:04:18.447Z,80.50
2022-12-19T19:06:52.257Z,80.67
2022-12-19T19:09:22.013Z,80.67
2022-12-19T19:11:49.445Z,80.52
2022-12-19T19:14:16.828Z,80.60
2022-12-19T19:16:45.883Z,80.30
2022-12-19T19:19:16.667Z,80.15
2022-12-19T19:21:45.649Z,80.20
2022-12-19T19:24:17.995Z,80.32
2022-12-19T19:26:53.793Z,79.73
2022-12-19T19:29:21.194Z,79.73
2022-12-19T19:31:51.432Z,79.53
2022-12-19T19:34:32.480Z,79.14
2022-12-19T19:37:04.123Z,78.88
2022-12-19T19:39:34.506Z,79.17
2022-12-19T19:42:08.509Z,79.04
2022-12-19T19:44:36.236Z,78.22
2022-12-19T19:47:03.765Z,78.60
2022-12-19T19:49:32.011Z,78.37
2022-12-19T19:52:03.195Z,78.60
2022-12-19T19:54:32.084Z,78.33
2022-12-19T19:57:00.564Z,78.32
2022-12-19T19:59:31.907Z,78.30
2022-12-19T20:02:01.061Z,78.44
2022-12-19T20:04:28.491Z,78.17
2022-12-19T20:06:56.326Z,78.13
2022-12-19T20:09:26.966Z,78.08
2022-12-19T20:12:00.096Z,78.01
2022-12-19T20:14:28.038Z,77.96
2022-12-19T20:16:56.795Z,77.20
2022-12-19T20:19:24.616Z,77.35
2022-12-19T20:21:52.120Z,76.98
2022-12-19T20:24:19.626Z,77.08
2022-12-19T20:26:46.875Z,77.04
2022-12-19T20:29:14.981Z,77.01
2022-12-19T20:31:42.675Z,76.96
2022-12-19T20:34:11.891Z,76.96
2022-12-19T20:36:41.826Z,77.06
2022-12-19T20:39:09.911Z,76.93
2022-12-19T20:41:38.888Z,76.63
2022-12-19T20:44:12.330Z,77.20
2022-12-19T20:46:40.142Z,77.00
2022-12-19T20:49:09.192Z,77.30
2022-12-19T20:51:39.450Z,77.56
2022-12-19T20:54:11.931Z,77.47
2022-12-19T20:56:39.536Z,77.63
2022-12-19T20:59:06.845Z,77.60
2022-12-19T21:01:35.462Z,77.73
2022-12-19T21:04:02.919Z,77.61
2022-12-19T21:06:30.671Z,78.22
2022-12-19T21:09:05.532Z,77.71
2022-12-19T21:11:33.995Z,77.21
2022-12-19T21:14:02.378Z,77.59
2022-12-19T21:16:31.922Z,77.83
2022-12-19T21:18:59.491Z,77.92
2022-12-19T21:21:27.681Z,77.45
2022-12-19T21:23:55.844Z,77.48
2022-12-19T21:26:24.979Z,77.54
2022-12-19T21:28:53.762Z,77.79
2022-12-19T21:31:30.216Z,77.56
2022-12-19T21:34:00.854Z,77.58
2022-12-19T21:36:29.721Z,77.99
2022-12-19T21:38:59.514Z,77.85
2022-12-19T21:41:33.687Z,77.82
2022-12-19T21:44:01.134Z,77.79
2022-12-19T21:46:31.253Z,78.47
2022-12-19T21:48:59.346Z,78.34
2022-12-19T21:51:29.353Z,78.29
2022-12-19T21:54:03.557Z,78.34
2022-12-19T21:56:41.943Z,78.33
2022-12-19T21:59:14.584Z,78.73
2022-12-19T22:01:43.163Z,78.55
2022-12-19T22:04:21.172Z,78.56
2022-12-19T22:06:51.584Z,78.86
2022-12-19T22:09:21.658Z,78.73
2022-12-19T22:11:50.182Z,79.08
2022-12-19T22:14:18.262Z,79.08
2022-12-19T22:16:45.650Z,79.35
2022-12-19T22:19:18.444Z,79.62
2022-12-19T22:21:47.324Z,79.87
2022-12-19T22:24:17.195Z,79.76
2022-12-19T22:26:54.603Z,79.67
2022-12-19T22:29:22.201Z,79.42
2022-12-19T22:31:50.871Z,79.57
2022-12-19T22:34:20.411Z,79.86
2022-12-19T22:36:49.747Z,79.81
2022-12-19T22:39:19.646Z,80.25
2022-12-19T22:41:47.160Z,79.96
2022-12-19T22:44:24.347Z,80.02
2022-12-19T22:46:52.299Z,80.12
2022-12-19T22:49:20.096Z,80.31
2022-12-19T22:51:47.275Z,80.37
2022-12-19T22:54:16.774Z,80.62
2022-12-19T22:56:44.221Z,80.73
2022-12-19T22:59:12.972Z,81.01
2022-12-19T23:01:46.484Z,81.43
2022-12-19T23:04:15.325Z,81.38
2022-12-19T23:06:44.568Z,81.40
2022-12-19T23:09:16.343Z,81.50
2022-12-19T23:11:47.280Z,81.65
2022-12-19T23:14:16.307Z,81.91
2022-12-19T23:16:44.680Z,81.98
2022-12-19T23:19:17.521Z,81.70
2022-12-19T23:21:45.020Z,82.15
2022-12-19T23:24:12.978Z,82.07
2022-12-19T23:26:40.863Z,82.24
2022-12-19T23:29:14.475Z,82.65
2022-12-19T23:31:44.392Z,82.20
2022-12-19T23:34:13.786Z,81.94
2022-12-19T23:37:13.232Z,81.83
2022-12-19T23:39:31.119Z,81.96
2022-12-19T23:41:58.422Z,82.03
2022-12-19T23:44:27.061Z,81.95
2022-12-19T23:47:02.317Z,81.76
2022-12-19T23:49:30.208Z,82.21
2022-12-19T23:51:58.500Z,81.96
2022-12-19T23:54:26.044Z,82.60
2022-12-19T23:56:53.723Z,82.84
2022-12-19T23:59:23.291Z,82.67
